createdAt,value
2022-08-14T00:01:03.923Z,97361.84
2022-08-14T00:03:40.683Z,97362.97
2022-08-14T00:06:25.343Z,97356.06
2022-08-14T00:08:59.011Z,97356.72
2022-08-14T00:11:32.107Z,97354.31
2022-08-14T00:14:01.466Z,97346.84
2022-08-14T00:16:41.364Z,97350.47
2022-08-14T00:19:19.158Z,97349.91
2022-08-14T00:21:50.270Z,97353.56
2022-08-14T00:24:23.156Z,97349.94
2022-08-14T00:27:02.290Z,97347.22
2022-08-14T00:29:39.829Z,97352.34
2022-08-14T00:32:52.420Z,97346.34
2022-08-14T00:34:57.468Z,97342.88
2022-08-14T00:37:25.298Z,97346.06
2022-08-14T00:39:53.430Z,97349.59
2022-08-14T00:42:55.417Z,97342.44
2022-08-14T00:45:14.018Z,97331.72
2022-08-14T00:47:45.185Z,97330.25
2022-08-14T00:50:17.853Z,97335.19
2022-08-14T00:52:47.432Z,97329.97
2022-08-14T00:55:20.232Z,97333.06
2022-08-14T00:58:10.979Z,97329.44
2022-08-14T01:00:47.327Z,97331.13
2022-08-14T01:03:21.043Z,97325.53
2022-08-14T01:05:52.490Z,97321.66
2022-08-14T01:08:58.217Z,97320.41
2022-08-14T01:11:11.049Z,97318.72
2022-08-14T01:14:00.827Z,97318.28
2022-08-14T01:16:31.817Z,97309.91
2022-08-14T01:19:17.433Z,97314.06
2022-08-14T01:21:53.080Z,97307.59
2022-08-14T01:24:24.708Z,97308.22
2022-08-14T01:27:00.138Z,97310.78
2022-08-14T01:29:58.838Z,97310.44
2022-08-14T01:32:23.097Z,97303.91
2022-08-14T01:35:19.906Z,97317.41
2022-08-14T01:37:54.841Z,97311.22
2022-08-14T01:40:36.619Z,97314.94
2022-08-14T01:43:13.097Z,97308.13
2022-08-14T01:45:41.941Z,97309.28
2022-08-14T01:48:13.736Z,97319.78
2022-08-14T01:50:44.198Z,97309.50
2022-08-14T01:53:14.474Z,97303.16
2022-08-14T01:55:42.523Z,97296.97
2022-08-14T01:58:19.995Z,97290.06
2022-08-14T02:00:55.566Z,97295.38
2022-08-14T02:03:24.691Z,97302.53
2022-08-14T02:06:03.817Z,97294.66
2022-08-14T02:08:53.147Z,97294.03
2022-08-14T02:11:24.880Z,97289.91
2022-08-14T02:13:56.507Z,97286.41
2022-08-14T02:16:26.642Z,97285.13
2022-08-14T02:18:58.133Z,97289.38
2022-08-14T02:21:28.044Z,97285.84
2022-08-14T02:23:57.453Z,97286.56
2022-08-14T02:26:29.180Z,97279.38
2022-08-14T02:29:00.648Z,97278.94
2022-08-14T02:31:42.337Z,97284.44
2022-08-14T02:34:21.839Z,97276.84
2022-08-14T02:37:03.510Z,97277.44
2022-08-14T02:39:37.167Z,97271.97
2022-08-14T02:42:06.782Z,97275.69
2022-08-14T02:44:42.274Z,97271.72
2022-08-14T02:47:14.761Z,97276.63
2022-08-14T02:49:43.188Z,97274.84
2022-08-14T02:52:56.263Z,97278.88
2022-08-14T02:55:02.030Z,97274.91
2022-08-14T02:57:39.971Z,97275.31
2022-08-14T03:00:10.575Z,97270.13
2022-08-14T03:02:56.481Z,97275.19
2022-08-14T03:05:32.825Z,97270.38
2022-08-14T03:08:09.357Z,97269.38
2022-08-14T03:10:49.242Z,97260.94
2022-08-14T03:13:21.100Z,97259.03
2022-08-14T03:15:56.213Z,97265.75
2022-08-14T03:18:31.339Z,97257.84
2022-08-14T03:21:02.112Z,97253.31
2022-08-14T03:23:34.276Z,97252.88
2022-08-14T03:26:12.560Z,97252.53
2022-08-14T03:28:48.763Z,97250.56
2022-08-14T03:31:22.082Z,97241.88
2022-08-14T03:33:54.589Z,97242.47
2022-08-14T03:37:39.282Z,97239.28
2022-08-14T03:39:22.290Z,97233.81
2022-08-14T03:41:55.228Z,97237.81
2022-08-14T03:45:20.370Z,97232.03
2022-08-14T03:47:12.308Z,97233.44
2022-08-14T03:49:44.280Z,97225.91
2022-08-14T03:52:37.498Z,97222.97
2022-08-14T03:55:03.507Z,97223.88
2022-08-14T03:57:32.747Z,97216.69
2022-08-14T04:00:13.625Z,97220.13
2022-08-14T04:02:55.862Z,97199.84
2022-08-14T04:05:26.596Z,97194.38
2022-08-14T04:08:08.558Z,97196.78
2022-08-14T04:10:43.057Z,97198.91
2022-08-14T04:13:18.238Z,97197.81
2022-08-14T04:16:01.879Z,97192.13
2022-08-14T04:18:33.852Z,97190.03
2022-08-14T04:21:03.959Z,97196.25
2022-08-14T04:23:33.714Z,97199.31
2022-08-14T04:26:03.277Z,97196.28
2022-08-14T04:29:08.563Z,97191.63
2022-08-14T04:31:25.102Z,97197.28
2022-08-14T04:34:16.948Z,97194.09
2022-08-14T04:37:07.472Z,97199.44
2022-08-14T04:39:56.600Z,97192.03
2022-08-14T04:42:47.323Z,97186.25
2022-08-14T04:45:23.572Z,97177.00
2022-08-14T04:48:10.388Z,97179.06
2022-08-14T04:50:44.679Z,97178.44
2022-08-14T04:53:15.144Z,97182.38
2022-08-14T04:55:45.908Z,97177.03
2022-08-14T04:58:21.487Z,97179.03
2022-08-14T05:00:52.414Z,97177.78
2022-08-14T05:03:21.825Z,97172.19
2022-08-14T05:05:55.173Z,97167.41
2022-08-14T05:08:31.936Z,97168.28
2022-08-14T05:11:13.327Z,97175.75
2022-08-14T05:16:31.759Z,97167.00
2022-08-14T05:19:18.145Z,97161.59
2022-08-14T05:22:00.059Z,97154.06
2022-08-14T05:24:35.633Z,97148.69
2022-08-14T05:27:05.913Z,97147.88
2022-08-14T05:29:33.908Z,97150.72
2022-08-14T05:32:07.290Z,97144.50
2022-08-14T05:34:35.098Z,97146.03
2022-08-14T05:37:04.092Z,97141.75
2022-08-14T05:39:35.112Z,97142.19
2022-08-14T05:42:09.782Z,97134.88
2022-08-14T05:44:49.709Z,97129.97
2022-08-14T05:47:23.310Z,97135.16
2022-08-14T05:49:51.694Z,97144.13
2022-08-14T05:52:26.404Z,97144.47
2022-08-14T05:55:08.164Z,97125.28
2022-08-14T05:57:36.589Z,97126.16
2022-08-14T06:00:05.363Z,97121.91
2022-08-14T06:02:35.061Z,97110.97
2022-08-14T06:05:03.078Z,97115.56
2022-08-14T06:07:31.178Z,97113.34
2022-08-14T06:10:04.045Z,97101.25
2022-08-14T06:12:56.518Z,97100.97
2022-08-14T06:15:20.573Z,97110.00
2022-08-14T06:17:56.651Z,97108.28
2022-08-14T06:20:28.191Z,97095.56
2022-08-14T06:22:56.637Z,97100.13
2022-08-14T06:25:25.069Z,97100.84
2022-08-14T06:27:54.141Z,97108.53
2022-08-14T06:30:30.231Z,97108.72
2022-08-14T06:33:15.783Z,97106.16
2022-08-14T06:35:43.745Z,97097.78
2022-08-14T06:38:17.652Z,97100.66
2022-08-14T06:40:46.577Z,97101.75
2022-08-14T06:43:15.716Z,97097.59
2022-08-14T06:45:50.223Z,97109.22
2022-08-14T06:48:24.825Z,97109.91
2022-08-14T06:50:53.786Z,97096.03
2022-08-14T06:53:28.133Z,97107.97
2022-08-14T06:56:02.253Z,97100.66
2022-08-14T06:58:31.900Z,97098.19
2022-08-14T07:01:25.037Z,97099.91
2022-08-14T07:04:22.716Z,97097.25
2022-08-14T07:06:55.636Z,97106.88
2022-08-14T07:09:43.615Z,97099.25
2022-08-14T07:12:51.851Z,97102.34
2022-08-14T07:15:07.905Z,97107.56
2022-08-14T07:17:36.470Z,97104.69
2022-08-14T07:20:07.262Z,97108.13
2022-08-14T07:22:55.912Z,97101.75
2022-08-14T07:25:32.308Z,97110.88
2022-08-14T07:28:01.318Z,97111.44
2022-08-14T07:30:34.644Z,97108.91
2022-08-14T07:33:03.480Z,97103.09
2022-08-14T07:35:37.337Z,97107.09
2022-08-14T07:38:23.373Z,97092.88
2022-08-14T07:40:53.269Z,97095.00
2022-08-14T07:43:23.117Z,97092.56
2022-08-14T07:45:53.976Z,97104.75
2022-08-14T07:48:24.813Z,97104.50
2022-08-14T07:51:03.206Z,97095.16
2022-08-14T07:53:40.593Z,97100.38
2022-08-14T07:56:43.726Z,97087.41
2022-08-14T07:58:58.761Z,97086.25
2022-08-14T08:01:29.836Z,97074.78
2022-08-14T08:04:01.159Z,97079.69
2022-08-14T08:06:31.171Z,97086.09
2022-08-14T08:09:03.282Z,97091.84
2022-08-14T08:11:37.486Z,97084.84
2022-08-14T08:14:17.361Z,97089.97
2022-08-14T08:16:47.318Z,97086.75
2022-08-14T08:19:19.464Z,97086.78
2022-08-14T08:21:49.042Z,97086.69
2022-08-14T08:24:18.550Z,97074.81
2022-08-14T08:26:50.256Z,97074.03
2022-08-14T08:29:25.041Z,97081.13
2022-08-14T08:32:02.042Z,97077.19
2022-08-14T08:34:45.983Z,97072.69
2022-08-14T08:37:16.810Z,97076.66
2022-08-14T08:40:02.775Z,97071.88
2022-08-14T08:42:38.149Z,97060.19
2022-08-14T08:45:12.040Z,97061.44
2022-08-14T08:47:41.599Z,97055.41
2022-08-14T08:50:23.120Z,97047.91
2022-08-14T08:53:02.196Z,97060.38
2022-08-14T08:55:34.048Z,97051.16
2022-08-14T08:58:05.307Z,97065.22
2022-08-14T09:00:35.510Z,97036.84
2022-08-14T09:03:11.565Z,97048.81
2022-08-14T09:05:50.319Z,97040.16
2022-08-14T09:08:26.589Z,97034.91
2022-08-14T09:11:01.236Z,97038.38
2022-08-14T09:13:30.631Z,97046.28
2022-08-14T09:16:06.665Z,97045.44
2022-08-14T09:18:47.645Z,97035.19
2022-08-14T09:21:16.164Z,97036.75
2022-08-14T09:24:27.007Z,97028.50
2022-08-14T09:26:36.144Z,97038.03
2022-08-14T09:29:08.199Z,97026.47
2022-08-14T09:31:52.685Z,97038.34
2022-08-14T09:34:29.659Z,97033.03
2022-08-14T09:37:16.624Z,97020.75
2022-08-14T09:39:57.781Z,97022.88
2022-08-14T09:42:52.574Z,97018.56
2022-08-14T09:45:23.987Z,97010.28
2022-08-14T09:47:54.440Z,97011.41
2022-08-14T09:50:26.828Z,97022.88
2022-08-14T09:52:58.412Z,97020.41
2022-08-14T09:55:41.355Z,97020.00
2022-08-14T09:58:19.123Z,97019.06
2022-08-14T10:00:48.822Z,97014.66
2022-08-14T10:03:28.750Z,97009.19
2022-08-14T10:06:09.392Z,97006.25
2022-08-14T10:08:51.732Z,96988.78
2022-08-14T10:11:24.142Z,96985.22
2022-08-14T10:13:57.307Z,96987.72
2022-08-14T10:16:30.423Z,96981.78
2022-08-14T10:19:09.860Z,96966.88
2022-08-14T10:21:58.442Z,96979.25
2022-08-14T10:24:36.116Z,96978.66
2022-08-14T10:27:18.382Z,96980.97
2022-08-14T10:29:50.231Z,96972.38
2022-08-14T10:32:29.137Z,96979.28
2022-08-14T10:35:06.780Z,96965.97
2022-08-14T10:37:44.310Z,96970.22
2022-08-14T10:40:38.654Z,96957.44
2022-08-14T10:43:05.811Z,96965.28
2022-08-14T10:45:46.278Z,96958.66
2022-08-14T10:48:24.422Z,96958.03
2022-08-14T10:51:08.346Z,96944.28
2022-08-14T10:53:40.110Z,96946.16
2022-08-14T10:56:21.905Z,96937.28
2022-08-14T10:59:04.149Z,96951.19
2022-08-14T11:01:38.662Z,96937.81
2022-08-14T11:04:25.998Z,96932.94
2022-08-14T11:06:56.541Z,96928.56
2022-08-14T11:09:26.247Z,96935.53
2022-08-14T11:12:34.372Z,96941.91
2022-08-14T11:14:59.206Z,96936.06
2022-08-14T11:17:28.588Z,96936.31
2022-08-14T11:20:01.302Z,96933.72
2022-08-14T11:22:56.267Z,96920.06
2022-08-14T11:25:21.205Z,96926.19
2022-08-14T11:27:49.597Z,96936.69
2022-08-14T11:30:49.954Z,96916.97
2022-08-14T11:33:09.349Z,96907.88
2022-08-14T11:35:47.220Z,96917.31
2022-08-14T11:38:17.192Z,96908.06
2022-08-14T11:40:47.642Z,96914.84
2022-08-14T11:43:16.572Z,96907.25
2022-08-14T11:45:49.864Z,96902.31
2022-08-14T11:49:03.485Z,96895.47
2022-08-14T11:51:14.709Z,96891.47
2022-08-14T11:53:51.372Z,96892.69
2022-08-14T11:56:25.453Z,96894.88
2022-08-14T11:58:58.629Z,96890.59
2022-08-14T12:01:30.957Z,96884.69
2022-08-14T12:04:21.499Z,96876.84
2022-08-14T12:06:58.367Z,96875.44
2022-08-14T12:09:31.467Z,96864.19
2022-08-14T12:11:59.832Z,96859.78
2022-08-14T12:14:30.479Z,96873.13
2022-08-14T12:17:11.782Z,96849.66
2022-08-14T12:19:51.203Z,96856.16
2022-08-14T12:22:29.581Z,96850.25
2022-08-14T12:24:58.360Z,96853.66
2022-08-14T12:27:41.267Z,96842.75
2022-08-14T12:30:11.321Z,96851.81
2022-08-14T12:32:43.567Z,96858.06
2022-08-14T12:35:12.503Z,96861.25
2022-08-14T12:37:40.900Z,96841.81
2022-08-14T12:40:20.918Z,96844.16
2022-08-14T12:42:52.692Z,96836.00
2022-08-14T12:45:32.764Z,96841.06
2022-08-14T12:48:20.611Z,96843.66
2022-08-14T12:50:52.365Z,96837.66
2022-08-14T12:53:21.082Z,96833.44
2022-08-14T12:56:21.454Z,96839.78
2022-08-14T12:58:52.342Z,96832.66
2022-08-14T13:01:22.876Z,96836.09
2022-08-14T13:03:52.958Z,96833.44
2022-08-14T13:06:24.932Z,96825.88
2022-08-14T13:09:00.165Z,96826.84
2022-08-14T13:11:33.789Z,96819.50
2022-08-14T13:14:03.869Z,96827.72
2022-08-14T13:16:37.916Z,96819.13
2022-08-14T13:19:12.511Z,96822.28
2022-08-14T13:22:04.942Z,96811.59
2022-08-14T13:24:33.546Z,96808.94
2022-08-14T13:27:04.733Z,96809.38
2022-08-14T13:29:40.474Z,96794.47
2022-08-14T13:32:10.034Z,96793.75
2022-08-14T13:34:45.508Z,96776.59
2022-08-14T13:37:15.716Z,96769.91
2022-08-14T13:39:57.346Z,96766.09
2022-08-14T13:42:35.377Z,96759.13
2022-08-14T13:45:06.776Z,96757.13
2022-08-14T13:47:35.819Z,96763.00
2022-08-14T13:50:09.315Z,96763.09
2022-08-14T13:52:51.987Z,96755.88
2022-08-14T13:55:23.942Z,96759.09
2022-08-14T13:58:02.965Z,96761.38
2022-08-14T14:00:35.653Z,96761.91
2022-08-14T14:03:21.900Z,96754.47
2022-08-14T14:05:54.573Z,96755.50
2022-08-14T14:08:46.092Z,96752.78
2022-08-14T14:11:13.406Z,96742.19
2022-08-14T14:13:45.155Z,96738.69
2022-08-14T14:16:26.689Z,96736.78
2022-08-14T14:19:08.829Z,96730.56
2022-08-14T14:21:40.816Z,96729.94
2022-08-14T14:24:15.531Z,96735.47
2022-08-14T14:26:47.249Z,96725.59
2022-08-14T14:29:16.782Z,96726.84
2022-08-14T14:31:48.685Z,96713.38
2022-08-14T14:34:29.139Z,96714.69
2022-08-14T14:37:03.214Z,96712.72
2022-08-14T14:39:37.619Z,96712.63
2022-08-14T14:42:09.296Z,96716.38
2022-08-14T14:44:42.452Z,96722.69
2022-08-14T14:47:12.384Z,96713.75
2022-08-14T14:49:54.510Z,96697.53
2022-08-14T14:52:28.580Z,96695.53
2022-08-14T14:54:58.239Z,96694.31
2022-08-14T14:57:35.616Z,96678.00
2022-08-14T15:00:06.560Z,96675.31
2022-08-14T15:02:42.129Z,96684.69
2022-08-14T15:05:11.454Z,96673.81
2022-08-14T15:07:42.999Z,96672.53
2022-08-14T15:10:26.695Z,96669.00
2022-08-14T15:13:00.280Z,96663.63
2022-08-14T15:15:32.660Z,96666.09
2022-08-14T15:18:01.268Z,96670.66
2022-08-14T15:20:31.229Z,96662.44
2022-08-14T15:23:12.233Z,96662.59
2022-08-14T15:25:40.864Z,96657.75
2022-08-14T15:28:13.074Z,96661.19
2022-08-14T15:30:57.896Z,96655.47
2022-08-14T15:34:01.243Z,96657.88
2022-08-14T15:36:29.885Z,96652.94
2022-08-14T15:38:59.793Z,96653.94
2022-08-14T15:41:33.787Z,96655.69
2022-08-14T15:44:25.234Z,96651.19
2022-08-14T15:46:54.452Z,96655.22
2022-08-14T15:49:24.234Z,96648.31
2022-08-14T15:51:52.033Z,96645.84
2022-08-14T15:54:22.012Z,96638.09
2022-08-14T15:56:58.463Z,96644.56
2022-08-14T15:59:27.394Z,96635.41
2022-08-14T16:01:57.214Z,96627.66
2022-08-14T16:04:25.666Z,96628.88
2022-08-14T16:06:54.610Z,96631.56
2022-08-14T16:09:25.122Z,96634.59
2022-08-14T16:11:55.143Z,96626.66
2022-08-14T16:14:24.241Z,96635.91
2022-08-14T16:17:00.487Z,96628.00
2022-08-14T16:19:48.066Z,96628.22
2022-08-14T16:22:59.553Z,96629.47
2022-08-14T16:25:08.967Z,96634.31
2022-08-14T16:27:40.975Z,96628.34
2022-08-14T16:30:27.811Z,96625.75
2022-08-14T16:32:59.055Z,96625.63
2022-08-14T16:35:42.719Z,96627.47
2022-08-14T16:38:44.571Z,96629.06
2022-08-14T16:41:26.334Z,96626.94
2022-08-14T16:44:01.787Z,96627.63
2022-08-14T16:46:32.838Z,96626.81
2022-08-14T16:49:01.741Z,96618.13
2022-08-14T16:51:34.949Z,96622.91
2022-08-14T16:54:34.278Z,96617.56
2022-08-14T16:56:57.238Z,96608.31
2022-08-14T16:59:30.430Z,96614.47
2022-08-14T17:02:13.831Z,96615.34
2022-08-14T17:04:49.218Z,96610.75
2022-08-14T17:07:17.154Z,96608.53
2022-08-14T17:09:48.769Z,96605.75
2022-08-14T17:12:28.525Z,96613.00
2022-08-14T17:15:01.872Z,96608.97
2022-08-14T17:17:44.150Z,96610.88
2022-08-14T17:20:53.504Z,96606.19
2022-08-14T17:23:11.104Z,96604.16
2022-08-14T17:25:39.636Z,96602.50
2022-08-14T17:28:49.940Z,96601.72
2022-08-14T17:31:04.089Z,96597.25
2022-08-14T17:33:33.800Z,96595.16
2022-08-14T17:36:21.488Z,96594.56
2022-08-14T17:39:06.230Z,96586.22
2022-08-14T17:41:43.409Z,96588.91
2022-08-14T17:44:20.109Z,96578.91
2022-08-14T17:46:55.309Z,96577.66
2022-08-14T17:49:28.028Z,96579.91
2022-08-14T17:52:07.678Z,96585.72
2022-08-14T17:54:47.602Z,96587.94
2022-08-14T17:57:22.975Z,96586.50
2022-08-14T17:59:54.428Z,96582.59
2022-08-14T18:02:31.214Z,96591.25
2022-08-14T18:05:03.031Z,96585.09
2022-08-14T18:07:59.780Z,96583.13
2022-08-14T18:10:54.862Z,96592.88
2022-08-14T18:13:10.939Z,96587.75
2022-08-14T18:15:42.845Z,96582.50
2022-08-14T18:18:12.316Z,96584.75
2022-08-14T18:21:24.200Z,96586.22
2022-08-14T18:23:32.194Z,96597.59
2022-08-14T18:26:04.894Z,96595.13
2022-08-14T18:28:51.354Z,96593.31
2022-08-14T18:31:43.540Z,96587.59
2022-08-14T18:34:32.087Z,96588.38
2022-08-14T18:37:14.268Z,96591.41
2022-08-14T18:40:02.307Z,96590.72
2022-08-14T18:42:45.410Z,96588.44
2022-08-14T18:45:19.006Z,96593.22
2022-08-14T18:48:15.963Z,96592.88
2022-08-14T18:50:52.601Z,96595.16
2022-08-14T18:53:24.862Z,96598.25
2022-08-14T18:55:56.208Z,96603.97
2022-08-14T18:58:34.199Z,96602.16
2022-08-14T19:01:04.498Z,96601.25
2022-08-14T19:04:02.189Z,96607.94
2022-08-14T19:06:56.445Z,96601.13
2022-08-14T19:09:57.921Z,96608.53
2022-08-14T19:12:58.785Z,96602.91
2022-08-14T19:15:32.611Z,96612.66
2022-08-14T19:18:14.162Z,96619.41
2022-08-14T19:20:52.866Z,96616.25
2022-08-14T19:23:40.619Z,96619.88
2022-08-14T19:26:34.695Z,96616.50
2022-08-14T19:29:23.544Z,96610.41
2022-08-14T19:31:55.747Z,96618.19
2022-08-14T19:34:40.413Z,96624.72
2022-08-14T19:37:48.467Z,96618.94
2022-08-14T19:40:33.961Z,96620.22
2022-08-14T19:43:06.511Z,96626.66
2022-08-14T19:45:35.785Z,96624.38
2022-08-14T19:48:11.331Z,96626.38
2022-08-14T19:50:41.059Z,96630.88
2022-08-14T19:53:17.545Z,96629.31
2022-08-14T19:55:58.700Z,96631.38
2022-08-14T19:58:38.863Z,96630.16
2022-08-14T20:01:37.579Z,96630.88
2022-08-14T20:04:46.974Z,96634.75
2022-08-14T20:07:00.442Z,96632.00
2022-08-14T20:11:07.362Z,96633.28
2022-08-14T20:12:29.239Z,96634.94
2022-08-14T20:15:06.198Z,96634.69
2022-08-14T20:17:52.218Z,96633.25
2022-08-14T20:20:32.026Z,96636.44
2022-08-14T20:23:02.778Z,96633.13
2022-08-14T20:25:45.627Z,96630.78
2022-08-14T20:28:35.641Z,96636.81
2022-08-14T20:31:15.834Z,96632.50
2022-08-14T20:34:04.500Z,96627.50
2022-08-14T20:36:38.398Z,96622.22
2022-08-14T20:39:10.219Z,96621.28
2022-08-14T20:41:51.086Z,96624.97
2022-08-14T20:44:41.796Z,96625.47
2022-08-14T20:47:16.235Z,96624.97
2022-08-14T20:49:44.727Z,96623.84
2022-08-14T20:52:18.974Z,96622.38
2022-08-14T20:54:50.089Z,96627.59
2022-08-14T20:57:21.162Z,96625.19
2022-08-14T20:59:53.399Z,96618.91
2022-08-14T21:02:46.843Z,96617.47
2022-08-14T21:05:33.296Z,96621.06
2022-08-14T21:08:08.436Z,96617.56
2022-08-14T21:10:51.384Z,96614.06
2022-08-14T21:13:27.771Z,96613.31
2022-08-14T21:16:25.930Z,96618.16
2022-08-14T21:19:00.040Z,96614.63
2022-08-14T21:21:40.890Z,96617.84
2022-08-14T21:24:39.956Z,96615.94
2022-08-14T21:27:04.462Z,96616.75
2022-08-14T21:29:54.382Z,96624.75
2022-08-14T21:32:35.323Z,96632.66
2022-08-14T21:35:08.977Z,96626.34
2022-08-14T21:37:47.514Z,96625.59
2022-08-14T21:40:33.203Z,96632.31
2022-08-14T21:43:05.147Z,96626.75
2022-08-14T21:45:35.786Z,96622.31
2022-08-14T21:48:10.525Z,96638.91
2022-08-14T21:51:00.246Z,96637.69
2022-08-14T21:53:33.879Z,96636.91
2022-08-14T21:56:03.162Z,96633.75
2022-08-14T21:58:52.300Z,96630.94
2022-08-14T22:01:20.350Z,96633.00
2022-08-14T22:03:54.995Z,96635.78
2022-08-14T22:06:28.600Z,96627.84
2022-08-14T22:08:58.360Z,96632.22
2022-08-14T22:11:27.504Z,96633.31
2022-08-14T22:13:56.026Z,96633.78
2022-08-14T22:17:02.274Z,96629.78
2022-08-14T22:19:17.015Z,96623.84
2022-08-14T22:21:51.167Z,96610.84
2022-08-14T22:24:38.059Z,96620.75
2022-08-14T22:27:10.233Z,96616.44
2022-08-14T22:29:39.760Z,96622.31
2022-08-14T22:32:08.159Z,96622.72
2022-08-14T22:34:36.515Z,96622.38
2022-08-14T22:37:10.387Z,96622.88
2022-08-14T22:40:46.063Z,96624.09
2022-08-14T22:42:26.201Z,96612.72
2022-08-14T22:45:07.167Z,96619.00
2022-08-14T22:47:40.723Z,96607.16
2022-08-14T22:50:29.223Z,96595.38
2022-08-14T22:53:00.497Z,96599.72
2022-08-14T22:55:28.676Z,96597.78
2022-08-14T22:57:56.424Z,96587.94
2022-08-14T23:00:30.093Z,96596.22
2022-08-14T23:03:01.983Z,96583.63
2022-08-14T23:05:40.100Z,96579.69
2022-08-14T23:08:59.675Z,96576.56
2022-08-14T23:11:10.558Z,96571.47
2022-08-14T23:13:39.533Z,96569.09
2022-08-14T23:16:08.805Z,96578.97
2022-08-14T23:18:38.925Z,96568.34
2022-08-14T23:21:11.167Z,96571.47
2022-08-14T23:23:41.625Z,96573.03
2022-08-14T23:26:47.842Z,96567.13
2022-08-14T23:28:59.618Z,96567.94
2022-08-14T23:31:35.849Z,96562.00
2022-08-14T23:34:06.960Z,96562.81
2022-08-14T23:36:38.006Z,96563.19
2022-08-14T23:39:29.474Z,96563.19
2022-08-14T23:42:02.437Z,96568.75
2022-08-14T23:44:35.287Z,96555.75
2022-08-14T23:47:11.682Z,96559.28
2022-08-14T23:50:01.328Z,96569.91
2022-08-14T23:52:51.309Z,96573.38
2022-08-14T23:55:29.385Z,96567.06
2022-08-14T23:58:00.446Z,96569.81
